FSM weather

Fort Smith Regional Airport
Fort Smith, Arkansas, United States

Public forecast

Using degrees Fahrenheit for public forecast. Weather courtesy of forecast.io.

METAR (pilot weather report)

Retrieved 2019/06/16 23:53 UTC (44 minutes ago):

KFSM 162353Z 23005KT 10SM BKN050 OVC060 27/19 A2981 RMK AO2 SLP090 T02720194 10306 20272 56013

TAF (pilot weather forecast)

Forecast is more than 12 hours old.

Retrieved 2019/06/16 00:22 UTC (1 day ago):

TAF KFSM 162320Z 1700/1724 23007KT P6SM BKN050 FM170200 16005KT P6SM VCTS BKN040CB TEMPO 1702/1705 4SM TSRA BKN025CB FM170500 09003KT P6SM SCT025 BKN040 FM170800 09004KT P6SM VCTS OVC025CB FM171200 09004KT P6SM OVC015 FM171800 22006KT P6SM BKN025 FM172100 28005KT P6SM BKN050